TimeMDT,TemperatureF,Dew PointF,Humidity,Sea Level PressureIn,VisibilityMPH,Wind Direction,Wind SpeedMPH,Gust SpeedMPH,PrecipitationIn,Events,Conditions,WindDirDegrees,DateUTC
12:00 AM,7,5,86,30.22,,SSE,2.3,,,,,160,2013-09-19 06:00:00
12:00 AM,7.2,5.0,91,30.22,-9999.0,SSE,2.3,-,N/A,,Unknown,160,2013-09-19 06:00:00
1:00 AM,5.0,2.1,88,30.21,-9999.0,SSE,2.3,-,N/A,,Unknown,150,2013-09-19 07:00:00
2:00 AM,6.3,3.7,89,30.21,-9999.0,SSE,1.2,-,N/A,,Unknown,160,2013-09-19 08:00:00
3:00 AM,6.3,3.7,89,30.19,-9999.0,SSE,1.2,-,N/A,,Unknown,150,2013-09-19 09:00:00
4:00 AM,5.5,3.0,89,30.18,-9999.0,Calm,Calm,-,N/A,,Unknown,0,2013-09-19 10:00:00
5:00 AM,5.0,2.3,89,30.16,-9999.0,Calm,Calm,-,N/A,,Unknown,0,2013-09-19 11:00:00
6:00 AM,4,1,83,30.15,,Calm,Calm,,,,,,2013-09-19 12:00:00
6:00 AM,4.3,1.6,89,30.15,-9999.0,Calm,Calm,-,N/A,,Unknown,0,2013-09-19 12:00:00
7:00 AM,1.9,-0.9,88,30.14,-9999.0,Calm,Calm,-,N/A,,Unknown,0,2013-09-19 13:00:00
8:00 AM,2.5,-0.6,87,30.13,-9999.0,Calm,Calm,-,N/A,,Unknown,0,2013-09-19 14:00:00
10:00 AM,5.9,3.4,89,-9999,-9999.0,Calm,Calm,-,N/A,,Unknown,0,2013-09-19 16:00:00
11:00 AM,13.8,12.0,93,30.10,-9999.0,Calm,Calm,-,N/A,,Unknown,0,2013-09-19 17:00:00
12:00 PM,16,14,88,30.08,,Calm,Calm,,,,,,2013-09-19 18:00:00
12:00 PM,16.2,14.2,92,30.08,-9999.0,Calm,Calm,-,0.01,,Unknown,0,2013-09-19 18:00:00
1:00 PM,18.9,17.2,93,30.07,-9999.0,West,2.3,-,N/A,,Unknown,280,2013-09-19 19:00:00
2:00 PM,43.9,33.8,68,-9999,-9999.0,NNE,2.3,-,N/A,,Unknown,30,2013-09-19 20:00:00
3:00 PM,44.1,33.3,66,-9999,-9999.0,NE,3.5,-,N/A,,Unknown,50,2013-09-19 21:00:00
4:00 PM,45.3,33.4,63,-9999,-9999.0,NNE,4.6,-,N/A,,Unknown,20,2013-09-19 22:00:00
5:00 PM,46.0,33.6,62,-9999,-9999.0,NE,2.3,-,N/A,,Unknown,50,2013-09-19 23:00:00
6:00 PM,46,34,51,,,North,5.8,,,,,0,2013-09-20 00:00:00
6:00 PM,46.0,33.6,62,-9999,-9999.0,North,5.8,-,N/A,,Unknown,360,2013-09-20 00:00:00
7:00 PM,44.8,34.3,67,-9999,-9999.0,North,3.5,-,N/A,,Unknown,360,2013-09-20 01:00:00
8:00 PM,43.9,35.1,71,-9999,-9999.0,WNW,1.2,-,N/A,,Unknown,290,2013-09-20 02:00:00
9:00 PM,43.0,34.9,73,-9999,-9999.0,NW,2.3,-,N/A,,Unknown,320,2013-09-20 03:00:00
10:00 PM,42.6,35.1,75,-9999,-9999.0,NNE,1.2,-,N/A,,Unknown,20,2013-09-20 04:00:00
11:00 PM,42.3,35.1,76,-9999,-9999.0,Calm,Calm,-,N/A,,Unknown,0,2013-09-20 05:00:00